Time;durP1;ratioP1;P1;durP2;ratioP2;P2;SDS_P1;SDS_P2;PMS_P1;PMS_P2;Temp;Humidity;BMP_temperature;BMP_pressure;BME280_temperature;BME280_humidity;BME280_pressure;Samples;Min_cycle;Max_cycle;Signal;HPM_P1;HPM_P2
2022/05/11 00:05:32;;;;;;;8.20;4.40;;;16.70;99.90;;;;;;12561442;28;20119;-81
2022/05/11 00:11:34;;;;;;;6.60;3.97;;;16.70;99.90;;;;;;12563405;28;20098;-79
2022/05/11 00:17:36;;;;;;;7.68;4.82;;;16.70;99.90;;;;;;12561415;28;20053;-80
2022/05/11 00:23:38;;;;;;;5.25;3.53;;;16.60;99.90;;;;;;12563856;28;20463;-79
2022/05/11 00:29:40;;;;;;;5.00;3.15;;;16.70;99.90;;;;;;12548712;28;20103;-79
2022/05/11 00:35:43;;;;;;;5.93;3.53;;;16.70;99.90;;;;;;12559952;28;20049;-79
2022/05/11 00:41:46;;;;;;;6.53;3.90;;;16.70;99.90;;;;;;12541598;28;20512;-79
2022/05/11 00:48:01;;;;;;;7.53;4.10;;;16.70;99.90;;;;;;12547787;28;20106;-79
2022/05/11 00:54:05;;;;;;;8.65;3.80;;;16.60;99.90;;;;;;12542315;28;20177;-80
2022/05/11 01:00:10;;;;;;;10.73;4.57;;;16.50;99.90;;;;;;12558878;28;20110;-78
2022/05/11 01:06:13;;;;;;;7.00;4.70;;;16.50;99.90;;;;;;12562461;28;20552;-80
2022/05/11 01:12:19;;;;;;;8.50;5.00;;;16.50;99.90;;;;;;12550428;28;20086;-79
2022/05/11 01:18:24;;;;;;;9.02;4.68;;;16.40;99.90;;;;;;12558288;28;20121;-80
2022/05/11 01:24:35;;;;;;;9.30;4.65;;;16.30;99.90;;;;;;12564794;28;20044;-78
2022/05/11 01:30:43;;;;;;;7.57;5.05;;;16.30;99.90;;;;;;12573023;28;20476;-79
2022/05/11 01:36:49;;;;;;;8.30;5.18;;;16.40;99.90;;;;;;12553844;28;20048;-79
2022/05/11 01:42:51;;;;;;;7.82;4.75;;;16.30;99.90;;;;;;12570611;28;20041;-79
2022/05/11 01:48:54;;;;;;;6.10;4.27;;;16.30;99.90;;;;;;12577235;28;20116;-79
2022/05/11 01:54:56;;;;;;;7.50;4.53;;;16.30;99.90;;;;;;12549974;28;20156;-79
2022/05/11 02:00:58;;;;;;;7.55;4.25;;;16.20;99.90;;;;;;12553418;28;20060;-80
2022/05/11 02:13:21;;;;;;;6.90;4.90;;;16.20;99.90;;;;;;12570467;28;20089;-79
2022/05/11 02:19:23;;;;;;;9.00;4.53;;;16.30;99.90;;;;;;12551701;28;20044;-79
2022/05/11 02:25:25;;;;;;;9.20;4.82;;;16.20;99.90;;;;;;12556840;28;20101;-80
2022/05/11 02:31:27;;;;;;;6.45;4.28;;;16.30;99.90;;;;;;12569545;28;20052;-80
2022/05/11 02:37:34;;;;;;;5.43;4.03;;;16.30;99.90;;;;;;12564197;28;20117;-80
2022/05/11 02:43:36;;;;;;;9.25;4.22;;;16.40;99.90;;;;;;12567534;28;20122;-79
2022/05/11 02:49:38;;;;;;;6.18;4.20;;;16.40;99.90;;;;;;12548075;28;20112;-79
2022/05/11 02:55:44;;;;;;;7.78;4.50;;;16.20;99.90;;;;;;12562278;28;20097;-79
2022/05/11 03:01:49;;;;;;;6.95;4.55;;;16.20;99.90;;;;;;12567234;28;20456;-80
2022/05/11 03:07:51;;;;;;;9.32;4.60;;;16.10;99.90;;;;;;12547806;28;20070;-80
2022/05/11 03:13:53;;;;;;;7.07;4.90;;;16.10;99.90;;;;;;12543921;28;20105;-80
2022/05/11 03:20:03;;;;;;;12.15;5.20;;;16.20;99.90;;;;;;12566375;28;20048;-79
2022/05/11 03:26:05;;;;;;;10.98;5.25;;;16.20;99.90;;;;;;12595254;28;20086;-80
2022/05/11 03:38:28;;;;;;;12.00;5.40;;;16.20;99.90;;;;;;12580325;28;20052;-79
2022/05/11 03:44:29;;;;;;;11.35;5.47;;;16.10;99.90;;;;;;12552034;28;20104;-78
2022/05/11 03:50:32;;;;;;;13.38;5.68;;;16.00;99.90;;;;;;12574571;28;20048;-80
2022/05/11 03:56:34;;;;;;;9.40;5.53;;;16.10;99.90;;;;;;12552935;28;20048;-80
2022/05/11 04:02:36;;;;;;;12.65;5.97;;;16.00;99.90;;;;;;12567836;28;20110;-79
2022/05/11 04:08:38;;;;;;;12.60;6.82;;;16.10;99.90;;;;;;12545639;28;20499;-79
2022/05/11 04:14:40;;;;;;;12.38;6.53;;;16.10;99.90;;;;;;12564172;28;20052;-78
2022/05/11 04:20:42;;;;;;;11.63;6.60;;;16.00;99.90;;;;;;12563633;28;20101;-78
2022/05/11 04:26:44;;;;;;;10.27;6.32;;;16.00;99.90;;;;;;12549392;28;20048;-82
2022/05/11 04:32:46;;;;;;;8.57;6.47;;;16.10;99.90;;;;;;12566365;28;20047;-82
2022/05/11 04:38:48;;;;;;;11.55;6.55;;;16.00;99.90;;;;;;12552000;28;20105;-81
2022/05/11 04:44:52;;;;;;;8.18;6.65;;;16.10;99.90;;;;;;12566882;28;20040;-80
2022/05/11 04:50:58;;;;;;;;;;;16.10;99.90;;;;;;12562127;28;20096;-82
2022/05/11 04:57:00;;;;;;;16.02;6.57;;;16.20;99.90;;;;;;12572927;28;20395;-80
2022/05/11 05:03:07;;;;;;;9.40;6.57;;;16.20;99.90;;;;;;12548764;28;20068;-79
2022/05/11 05:09:09;;;;;;;12.52;6.72;;;16.30;99.90;;;;;;12549413;28;20121;-81
2022/05/11 05:15:13;;;;;;;13.30;6.53;;;16.30;99.90;;;;;;12566911;28;20157;-80
2022/05/11 05:21:14;;;;;;;16.00;7.57;;;16.30;99.90;;;;;;12569123;28;20052;-80
2022/05/11 05:27:18;;;;;;;13.25;7.22;;;16.40;99.90;;;;;;12557392;28;20472;-81
2022/05/11 05:33:26;;;;;;;11.18;7.10;;;16.40;99.90;;;;;;12570962;28;20536;-80
2022/05/11 05:39:28;;;;;;;10.95;6.30;;;16.50;99.90;;;;;;12568130;28;20126;-81
2022/05/11 05:45:29;;;;;;;11.98;7.05;;;16.70;99.90;;;;;;12577900;28;20049;-80
2022/05/11 05:51:32;;;;;;;12.30;7.32;;;16.70;99.90;;;;;;12553284;28;20124;-81
2022/05/11 05:57:33;;;;;;;9.40;6.07;;;16.80;99.90;;;;;;12554234;28;20048;-80
2022/05/11 06:03:36;;;;;;;9.10;6.32;;;16.90;99.90;;;;;;12544952;28;20057;-79
2022/05/11 06:09:39;;;;;;;11.27;5.95;;;16.90;99.90;;;;;;12569832;28;20059;-81
2022/05/11 06:15:42;;;;;;;12.88;6.18;;;17.00;99.90;;;;;;12570428;28;20109;-82
2022/05/11 06:21:44;;;;;;;13.27;6.22;;;17.10;99.90;;;;;;12547667;28;20520;-80
2022/05/11 06:27:46;;;;;;;9.32;5.65;;;17.20;99.90;;;;;;12556561;28;20492;-81
2022/05/11 06:33:50;;;;;;;11.02;5.45;;;17.30;99.90;;;;;;12562987;28;20048;-80
2022/05/11 06:39:52;;;;;;;;;;;17.70;99.90;;;;;;12570258;28;20040;-81
2022/05/11 06:45:54;;;;;;;13.98;5.95;;;18.00;99.90;;;;;;12556508;28;19932;-80
2022/05/11 06:51:57;;;;;;;9.55;5.93;;;17.90;99.90;;;;;;12554010;28;20040;-80
2022/05/11 07:04:22;;;;;;;9.70;5.60;;;17.90;99.90;;;;;;12563436;28;20048;-80
2022/05/11 07:10:24;;;;;;;10.15;5.40;;;17.90;99.90;;;;;;12573315;28;20458;-81
2022/05/11 07:16:27;;;;;;;9.85;5.35;;;18.10;99.90;;;;;;12552104;28;20060;-81
2022/05/11 07:22:29;;;;;;;11.47;5.27;;;18.30;99.90;;;;;;12548296;28;20098;-80
2022/05/11 07:28:31;;;;;;;8.57;4.35;;;18.60;99.90;;;;;;12566576;28;20140;-80
2022/05/11 07:34:33;;;;;;;10.30;4.40;;;18.70;99.90;;;;;;12544679;28;20597;-81
2022/05/11 07:40:35;;;;;;;9.02;4.10;;;18.90;99.90;;;;;;12566212;28;20053;-81
2022/05/11 07:46:37;;;;;;;9.57;3.40;;;19.10;99.90;;;;;;12524767;28;20064;-80
2022/05/11 07:52:40;;;;;;;5.72;2.95;;;19.00;99.90;;;;;;12532132;28;20061;-81
2022/05/11 08:05:05;;;;;;;7.18;3.90;;;19.20;99.90;;;;;;12521277;28;20052;-80
2022/05/11 08:11:07;;;;;;;8.07;4.25;;;19.30;99.90;;;;;;12522535;28;20040;-81
2022/05/11 08:17:10;;;;;;;8.35;4.05;;;19.70;99.90;;;;;;12566274;28;20061;-81
2022/05/11 08:23:13;;;;;;;8.35;4.80;;;19.90;99.90;;;;;;12516079;28;20048;-82
2022/05/11 08:33:19;;;;;;;9.45;3.83;;;20.10;99.90;;;;;;12489683;28;20077;-81
2022/05/11 08:35:37;;;;;;;10.00;3.95;;;20.00;99.90;;;;;;12511030;28;20044;-81
2022/05/11 08:41:50;;;;;;;11.52;4.90;;;20.00;99.90;;;;;;12505733;28;20049;-80
2022/05/11 08:47:53;;;;;;;7.80;4.68;;;20.30;99.90;;;;;;12508757;28;20147;-82
2022/05/11 08:54:03;;;;;;;7.63;4.40;;;20.50;99.90;;;;;;12511294;28;20041;-82
2022/05/11 09:00:15;;;;;;;11.07;5.15;;;20.50;99.90;;;;;;12505615;28;20053;-80
2022/05/11 09:06:19;;;;;;;9.10;4.25;;;20.90;99.90;;;;;;12513678;28;20049;-81
2022/05/11 09:12:22;;;;;;;7.47;3.50;;;21.10;99.90;;;;;;12511841;28;20435;-82
2022/05/11 09:18:39;;;;;;;9.25;3.75;;;21.20;99.90;;;;;;12513550;28;20081;-81
2022/05/11 09:24:47;;;;;;;7.65;2.92;;;21.60;99.90;;;;;;12514241;28;20151;-81
2022/05/11 09:30:56;;;;;;;5.18;3.33;;;21.70;99.90;;;;;;12521701;28;20578;-81
2022/05/11 09:37:04;;;;;;;6.30;3.58;;;21.90;99.90;;;;;;12516277;28;20053;-83
2022/05/11 09:43:07;;;;;;;7.32;3.30;;;22.10;99.90;;;;;;12513184;28;20099;-82
2022/05/11 09:49:16;;;;;;;5.95;3.17;;;22.20;99.90;;;;;;12539540;28;20084;-81
2022/05/11 09:55:29;;;;;;;8.60;3.35;;;22.20;99.90;;;;;;12557522;28;20105;-81
2022/05/11 10:01:31;;;;;;;7.72;3.50;;;22.20;99.90;;;;;;12578707;28;20458;-82
2022/05/11 10:07:51;;;;;;;7.07;3.47;;;22.40;99.90;;;;;;12564861;28;20475;-84
2022/05/11 10:27:35;;;;;;;7.97;4.03;;;22.60;99.90;;;;;;12562187;28;20121;-80
2022/05/11 10:33:46;;;;;;;8.00;4.00;;;22.70;99.90;;;;;;12563706;28;20149;-81
2022/05/11 10:40:10;;;;;;;7.78;3.80;;;22.70;99.90;;;;;;12569345;28;20584;-80
2022/05/11 10:46:33;;;;;;;7.18;3.63;;;23.00;99.90;;;;;;12514347;28;20601;-81
2022/05/11 10:52:37;;;;;;;6.22;3.75;;;22.90;99.90;;;;;;12524815;28;20057;-80
2022/05/11 10:59:04;;;;;;;7.72;3.83;;;23.10;99.90;;;;;;12567578;28;20056;-80
2022/05/11 11:05:14;;;;;;;7.45;2.80;;;23.40;99.90;;;;;;12516012;28;20497;-80
2022/05/11 11:11:25;;;;;;;6.97;3.00;;;23.60;99.90;;;;;;12518721;28;20049;-81
2022/05/11 11:17:28;;;;;;;7.93;3.10;;;23.60;99.90;;;;;;12523566;28;20175;-80
2022/05/11 11:23:36;;;;;;;7.32;3.33;;;23.40;99.90;;;;;;12503566;28;20057;-81
2022/05/11 11:29:59;;;;;;;8.13;3.25;;;23.30;99.90;;;;;;12517634;28;20049;-80
2022/05/11 11:36:26;;;;;;;6.53;3.20;;;23.10;99.90;;;;;;12513788;28;20063;-80
2022/05/11 11:42:40;;;;;;;13.98;3.30;;;23.30;99.90;;;;;;12518240;28;20509;-80
2022/05/11 11:48:45;;;;;;;8.02;3.88;;;23.50;99.90;;;;;;12513677;28;20049;-81
2022/05/11 11:54:50;;;;;;;9.38;3.17;;;23.80;99.90;;;;;;12515832;28;20053;-82
2022/05/11 12:01:05;;;;;;;8.63;2.90;;;23.60;99.90;;;;;;12515920;28;20813;-79
2022/05/11 12:20:43;;;;;;;5.28;2.28;;;24.20;99.90;;;;;;12516260;28;20045;-81
2022/05/11 12:27:01;;;;;;;7.03;2.70;;;24.40;99.90;;;;;;12488264;28;20158;-81
2022/05/11 12:33:07;;;;;;;5.70;2.30;;;24.50;99.90;;;;;;12493625;28;20138;-82
2022/05/11 12:39:09;;;;;;;6.40;2.20;;;24.70;99.90;;;;;;12520170;28;20052;-82
2022/05/11 12:45:15;;;;;;;4.13;2.10;;;24.90;99.90;;;;;;12527276;28;20184;-81
2022/05/11 12:51:23;;;;;;;3.15;2.00;;;25.00;99.90;;;;;;12503634;28;20045;-81
2022/05/11 12:57:38;;;;;;;3.75;1.92;;;25.00;99.90;;;;;;12494871;28;20052;-81
2022/05/11 13:03:42;;;;;;;6.70;2.10;;;24.80;99.90;;;;;;12519455;28;20576;-82
2022/05/11 13:09:48;;;;;;;8.00;2.10;;;24.70;99.90;;;;;;12514886;28;20583;-82
2022/05/11 13:15:52;;;;;;;3.92;1.90;;;24.80;99.90;;;;;;12516526;28;20045;-82
2022/05/11 13:21:57;;;;;;;4.95;1.85;;;24.90;99.90;;;;;;12513684;28;20049;-81
2022/05/11 13:28:13;;;;;;;6.53;1.70;;;25.10;99.90;;;;;;12518588;28;20049;-83
2022/05/11 13:34:32;;;;;;;8.52;2.35;;;25.10;99.90;;;;;;12516493;28;20045;-83
2022/05/11 13:40:40;;;;;;;5.78;1.85;;;25.10;99.90;;;;;;12526147;28;20122;-79
2022/05/11 13:53:29;;;;;;;9.57;1.73;;;25.10;99.90;;;;;;12545647;28;20055;-80
2022/05/11 13:59:45;;;;;;;3.08;1.40;;;25.10;99.90;;;;;;12499175;28;20428;-81
2022/05/11 14:05:47;;;;;;;7.85;1.75;;;25.00;99.90;;;;;;12504683;28;20103;-81
2022/05/11 14:11:49;;;;;;;6.32;1.88;;;25.00;99.90;;;;;;12507330;28;20105;-81
2022/05/11 14:17:52;;;;;;;4.45;1.52;;;25.10;99.90;;;;;;12522691;28;20827;-81
2022/05/11 14:23:54;;;;;;;7.28;1.75;;;25.30;99.90;;;;;;12518973;28;20053;-81
2022/05/11 14:29:56;;;;;;;5.53;1.60;;;25.20;99.90;;;;;;12500028;28;20049;-80
2022/05/11 14:35:58;;;;;;;5.20;1.70;;;25.10;99.90;;;;;;12511156;28;20087;-81
2022/05/11 14:42:00;;;;;;;7.22;1.33;;;25.30;99.90;;;;;;12508015;28;20045;-80
2022/05/11 14:48:12;;;;;;;5.07;1.42;;;25.00;99.90;;;;;;12492812;28;20045;-81
2022/05/11 14:54:14;;;;;;;4.45;1.85;;;25.00;99.90;;;;;;12473211;28;20047;-82
2022/05/11 15:06:42;;;;;;;3.13;1.55;;;24.90;99.90;;;;;;12519431;28;20136;-80
2022/05/11 15:19:05;;;;;;;5.72;1.65;;;24.90;99.90;;;;;;12520416;28;20107;-80
2022/05/11 15:25:11;;;;;;;6.43;1.42;;;25.00;99.90;;;;;;12507816;28;20526;-81
2022/05/11 15:31:13;;;;;;;4.72;1.40;;;25.00;99.90;;;;;;12514886;28;20072;-80
2022/05/11 15:37:15;;;;;;;3.70;1.37;;;25.00;99.90;;;;;;12512274;28;20088;-79
2022/05/11 15:43:18;;;;;;;6.30;1.60;;;25.10;99.90;;;;;;12513103;28;20075;-81
2022/05/11 15:49:37;;;;;;;4.10;1.25;;;25.20;99.90;;;;;;12520354;28;20075;-81
2022/05/11 15:55:39;;;;;;;5.35;1.60;;;25.00;99.90;;;;;;12556582;28;20065;-80
2022/05/11 16:01:42;;;;;;;4.35;1.40;;;25.10;99.90;;;;;;12520802;28;20079;-80
2022/05/11 16:07:44;;;;;;;9.07;1.55;;;25.10;99.90;;;;;;12487628;28;22242;-79
2022/05/11 16:13:46;;;;;;;3.90;1.10;;;25.20;99.90;;;;;;12551214;28;20044;-80
2022/05/11 16:19:50;;;;;;;7.35;1.35;;;25.10;99.90;;;;;;12516178;28;20467;-79
2022/05/11 16:25:55;;;;;;;7.80;1.45;;;24.90;99.90;;;;;;12514162;28;20070;-80
2022/05/11 16:31:57;;;;;;;5.15;1.10;;;25.00;99.90;;;;;;12497920;28;20048;-80
2022/05/11 16:38:00;;;;;;;4.30;1.17;;;24.90;99.90;;;;;;12520659;28;20055;-81
2022/05/11 16:44:03;;;;;;;4.63;1.05;;;24.80;99.90;;;;;;12548056;28;20136;-81
2022/05/11 16:50:06;;;;;;;4.13;1.37;;;24.70;99.90;;;;;;12557976;28;20051;-81
2022/05/11 16:56:09;;;;;;;4.07;1.33;;;24.70;99.90;;;;;;12553718;28;20057;-78
2022/05/11 17:02:11;;;;;;;4.88;1.40;;;24.30;99.90;;;;;;12538706;28;20082;-81
2022/05/11 17:08:13;;;;;;;7.13;1.35;;;24.10;99.90;;;;;;12561326;28;20552;-79
2022/05/11 17:14:18;;;;;;;8.10;1.40;;;24.30;99.90;;;;;;12483654;28;20561;-81
2022/05/11 17:20:20;;;;;;;3.30;1.30;;;24.40;99.90;;;;;;12474367;28;20140;-80
2022/05/11 17:26:22;;;;;;;5.15;1.27;;;24.20;99.90;;;;;;12515343;28;20097;-80
2022/05/11 17:32:23;;;;;;;5.45;1.33;;;24.20;99.90;;;;;;12493424;28;20110;-80
2022/05/11 17:38:25;;;;;;;3.67;1.27;;;24.00;99.90;;;;;;12464909;28;20057;-80
2022/05/11 17:44:28;;;;;;;2.60;1.47;;;23.90;99.90;;;;;;12483500;28;20163;-80
2022/05/11 17:50:30;;;;;;;4.82;1.60;;;23.70;99.90;;;;;;12483985;28;20156;-82
2022/05/11 17:56:32;;;;;;;6.10;1.35;;;23.60;99.90;;;;;;12515744;28;20115;-80
2022/05/11 18:02:36;;;;;;;4.70;1.58;;;23.60;99.90;;;;;;12505738;28;20108;-80
2022/05/11 18:08:38;;;;;;;5.72;1.52;;;23.30;99.90;;;;;;12515280;28;20579;-79
2022/05/11 18:14:40;;;;;;;3.73;1.40;;;22.90;99.90;;;;;;12525201;28;20156;-80
2022/05/11 18:20:46;;;;;;;4.93;1.60;;;22.90;99.90;;;;;;12500736;28;20504;-80
2022/05/11 18:26:47;;;;;;;9.77;2.03;;;22.50;99.90;;;;;;12507147;28;20071;-80
2022/05/11 18:32:52;;;;;;;4.30;1.58;;;22.40;99.90;;;;;;12519783;28;20053;-80
2022/05/11 18:38:54;;;;;;;3.13;1.50;;;22.20;99.90;;;;;;12496345;28;20084;-80
2022/05/11 18:44:58;;;;;;;8.90;1.48;;;22.00;99.90;;;;;;12505331;28;20114;-81
2022/05/11 18:51:00;;;;;;;7.65;1.48;;;21.80;99.90;;;;;;12519353;28;20088;-79
2022/05/11 18:57:04;;;;;;;8.00;1.70;;;21.70;99.90;;;;;;12518116;28;20079;-81
2022/05/11 19:03:08;;;;;;;6.85;1.80;;;21.60;99.90;;;;;;12471779;28;20204;-80
2022/05/11 19:09:09;;;;;;;7.13;2.00;;;21.40;99.90;;;;;;12451346;28;20084;-81
2022/05/11 19:15:15;;;;;;;5.60;1.67;;;21.20;99.90;;;;;;12449750;28;20054;-80
2022/05/11 19:21:17;;;;;;;6.68;2.10;;;21.00;99.90;;;;;;12444583;28;20136;-81
2022/05/11 19:27:19;;;;;;;9.48;1.52;;;20.90;99.90;;;;;;12446901;28;20122;-81
2022/05/11 19:33:21;;;;;;;3.70;1.65;;;20.80;99.90;;;;;;12462662;28;20842;-82
2022/05/11 19:39:23;;;;;;;6.05;2.00;;;20.70;99.90;;;;;;12467369;28;20126;-80
2022/05/11 19:45:27;;;;;;;4.93;1.77;;;20.60;99.90;;;;;;12454481;28;20144;-81
2022/05/11 19:51:31;;;;;;;6.20;1.90;;;20.40;99.90;;;;;;12453924;28;20080;-81
2022/05/11 19:57:33;;;;;;;5.22;1.88;;;20.30;99.90;;;;;;12447370;28;20186;-82
2022/05/11 20:03:36;;;;;;;5.20;1.90;;;20.20;99.90;;;;;;12498574;28;20592;-80
2022/05/11 20:09:38;;;;;;;6.07;1.77;;;20.10;99.90;;;;;;12516252;28;20044;-81
2022/05/11 20:15:42;;;;;;;6.60;1.65;;;20.10;99.90;;;;;;12509586;28;20477;-81
2022/05/11 20:21:44;;;;;;;13.02;2.08;;;20.10;99.90;;;;;;12510502;28;20048;-80
2022/05/11 20:27:46;;;;;;;7.10;1.80;;;20.10;99.90;;;;;;12513012;28;20048;-81
2022/05/11 20:40:13;;;;;;;4.82;1.95;;;19.90;99.90;;;;;;12524425;28;20057;-80
2022/05/11 20:46:16;;;;;;;5.97;1.88;;;19.80;99.90;;;;;;12492445;28;20052;-80
2022/05/11 20:52:18;;;;;;;8.38;2.00;;;19.70;99.90;;;;;;12507483;28;20049;-80
2022/05/11 20:58:19;;;;;;;7.95;2.00;;;19.70;99.90;;;;;;12515530;28;20048;-80
2022/05/11 21:04:21;;;;;;;6.20;2.00;;;19.70;99.90;;;;;;12529495;28;20400;-81
2022/05/11 21:10:25;;;;;;;8.00;2.20;;;19.60;99.90;;;;;;12563315;28;20068;-80
2022/05/11 21:16:27;;;;;;;;;;;19.50;99.90;;;;;;12561141;28;20052;-80
2022/05/11 21:22:29;;;;;;;11.27;2.13;;;19.50;99.90;;;;;;12562842;28;19931;-81
2022/05/11 21:28:31;;;;;;;6.15;2.20;;;19.60;99.90;;;;;;12544708;28;20045;-80
2022/05/11 21:34:32;;;;;;;4.95;1.90;;;19.60;99.90;;;;;;12557614;28;20450;-81
2022/05/11 21:40:35;;;;;;;6.20;2.15;;;19.60;99.90;;;;;;12546162;28;20452;-81
2022/05/11 21:46:42;;;;;;;7.90;2.13;;;19.40;99.90;;;;;;12571978;28;20460;-81
2022/05/11 21:52:44;;;;;;;11.05;2.30;;;19.10;99.90;;;;;;12556582;28;20097;-80
2022/05/11 21:58:46;;;;;;;6.35;2.45;;;18.60;99.90;;;;;;12549922;28;20091;-79
2022/05/11 22:04:47;;;;;;;5.82;2.25;;;18.40;99.90;;;;;;12514153;28;20041;-79
2022/05/11 22:10:51;;;;;;;12.43;2.92;;;17.90;99.90;;;;;;12507808;28;20076;-79
2022/05/11 22:16:52;;;;;;;8.80;2.73;;;17.50;99.90;;;;;;12517933;28;20102;-80
2022/05/11 22:22:55;;;;;;;13.77;2.70;;;17.00;99.90;;;;;;12518885;28;20048;-78
2022/05/11 22:28:56;;;;;;;8.18;2.80;;;16.50;99.90;;;;;;12515475;28;20098;-79
2022/05/11 22:34:58;;;;;;;7.15;2.65;;;16.40;99.90;;;;;;12522555;28;20060;-79
2022/05/11 22:41:02;;;;;;;8.10;2.83;;;16.30;99.90;;;;;;12518467;28;20049;-79
2022/05/11 22:47:04;;;;;;;8.30;2.42;;;16.40;99.90;;;;;;12518637;28;20060;-80
2022/05/11 22:53:06;;;;;;;9.25;2.67;;;16.20;99.90;;;;;;12500839;28;20133;-80
2022/05/11 22:59:08;;;;;;;8.48;2.58;;;16.10;99.90;;;;;;12519184;28;21105;-80
2022/05/11 23:05:09;;;;;;;6.10;2.08;;;16.00;99.90;;;;;;12548740;28;20451;-80
2022/05/11 23:11:12;;;;;;;6.13;2.08;;;16.20;99.90;;;;;;12562637;28;20045;-81
2022/05/11 23:17:14;;;;;;;9.75;2.45;;;16.20;99.90;;;;;;12569531;28;20165;-80
2022/05/11 23:23:19;;;;;;;12.57;3.35;;;16.10;99.90;;;;;;12540627;28;20035;-80
2022/05/11 23:29:21;;;;;;;5.50;2.30;;;16.10;99.90;;;;;;12574665;28;20325;-81
2022/05/11 23:35:23;;;;;;;7.78;1.80;;;16.00;99.90;;;;;;12572723;28;20040;-79
2022/05/11 23:41:25;;;;;;;5.35;1.95;;;15.80;99.90;;;;;;12571487;28;20117;-80
2022/05/11 23:47:27;;;;;;;4.30;1.80;;;15.70;99.90;;;;;;12563106;28;20077;-80
2022/05/11 23:53:29;;;;;;;6.63;1.98;;;15.40;99.90;;;;;;12551799;28;20201;-80
2022/05/11 23:59:31;;;;;;;4.97;1.75;;;15.30;99.90;;;;;;12553310;28;20197;-80
